sensor_id;sensor_type;location;lat;lon;timestamp;temperature;humidity
73939;DHT22;62291;47.554;8.504;2024-03-25T00:01:57;4.40;99.90
73939;DHT22;62291;47.554;8.504;2024-03-25T00:04:23;4.30;99.90
73939;DHT22;62291;47.554;8.504;2024-03-25T00:06:49;4.20;99.90
73939;DHT22;62291;47.554;8.504;2024-03-25T00:09:15;4.20;99.90
73939;DHT22;62291;47.554;8.504;2024-03-25T00:11:41;4.20;99.90
73939;DHT22;62291;47.554;8.504;2024-03-25T00:14:07;4.20;99.90
73939;DHT22;62291;47.554;8.504;2024-03-25T00:16:33;4.30;99.90
73939;DHT22;62291;47.554;8.504;2024-03-25T00:18:59;4.20;99.90
73939;DHT22;62291;47.554;8.504;2024-03-25T00:21:25;4.30;99.90
73939;DHT22;62291;47.554;8.504;2024-03-25T00:23:50;4.20;99.90
73939;DHT22;62291;47.554;8.504;2024-03-25T00:26:16;4.20;99.90
73939;DHT22;62291;47.554;8.504;2024-03-25T00:28:42;4.20;99.90
73939;DHT22;62291;47.554;8.504;2024-03-25T00:31:09;4.10;99.90
73939;DHT22;62291;47.554;8.504;2024-03-25T00:33:35;4.10;99.90
73939;DHT22;62291;47.554;8.504;2024-03-25T00:36:01;4.00;99.90
73939;DHT22;62291;47.554;8.504;2024-03-25T00:38:27;4.00;99.90
73939;DHT22;62291;47.554;8.504;2024-03-25T00:40:52;4.00;99.90
73939;DHT22;62291;47.554;8.504;2024-03-25T00:43:18;3.90;99.90
73939;DHT22;62291;47.554;8.504;2024-03-25T00:45:45;3.90;99.90
73939;DHT22;62291;47.554;8.504;2024-03-25T00:48:12;3.80;99.90
73939;DHT22;62291;47.554;8.504;2024-03-25T00:50:37;3.80;99.90
73939;DHT22;62291;47.554;8.504;2024-03-25T00:53:03;3.80;99.90
73939;DHT22;62291;47.554;8.504;2024-03-25T00:55:29;3.70;99.90
73939;DHT22;62291;47.554;8.504;2024-03-25T00:57:54;3.60;99.90
73939;DHT22;62291;47.554;8.504;2024-03-25T01:00:20;3.50;99.90
73939;DHT22;62291;47.554;8.504;2024-03-25T01:02:46;3.40;99.90
73939;DHT22;62291;47.554;8.504;2024-03-25T01:05:12;3.30;99.90
73939;DHT22;62291;47.554;8.504;2024-03-25T01:07:38;3.20;99.90
73939;DHT22;62291;47.554;8.504;2024-03-25T01:10:05;3.10;99.90
73939;DHT22;62291;47.554;8.504;2024-03-25T01:12:32;3.10;99.90
73939;DHT22;62291;47.554;8.504;2024-03-25T01:14:58;3.10;99.90
73939;DHT22;62291;47.554;8.504;2024-03-25T01:17:23;3.10;99.90
73939;DHT22;62291;47.554;8.504;2024-03-25T01:19:49;3.10;99.90
73939;DHT22;62291;47.554;8.504;2024-03-25T01:22:15;3.10;99.90
73939;DHT22;62291;47.554;8.504;2024-03-25T01:24:40;3.10;99.90
73939;DHT22;62291;47.554;8.504;2024-03-25T01:27:06;3.10;99.90
73939;DHT22;62291;47.554;8.504;2024-03-25T01:29:32;3.20;99.90
73939;DHT22;62291;47.554;8.504;2024-03-25T01:31:58;3.10;99.90
73939;DHT22;62291;47.554;8.504;2024-03-25T01:34:28;3.10;99.90
73939;DHT22;62291;47.554;8.504;2024-03-25T01:36:53;3.10;99.90
73939;DHT22;62291;47.554;8.504;2024-03-25T01:39:19;3.10;99.90
73939;DHT22;62291;47.554;8.504;2024-03-25T01:41:45;3.10;99.90
73939;DHT22;62291;47.554;8.504;2024-03-25T01:44:11;3.00;99.90
73939;DHT22;62291;47.554;8.504;2024-03-25T01:46:37;3.00;99.90
73939;DHT22;62291;47.554;8.504;2024-03-25T01:49:04;3.00;99.90
73939;DHT22;62291;47.554;8.504;2024-03-25T01:51:30;2.90;99.90
73939;DHT22;62291;47.554;8.504;2024-03-25T01:53:56;2.80;99.90
73939;DHT22;62291;47.554;8.504;2024-03-25T01:56:24;2.80;99.90
73939;DHT22;62291;47.554;8.504;2024-03-25T01:58:50;2.70;99.90
73939;DHT22;62291;47.554;8.504;2024-03-25T02:01:17;2.80;99.90
73939;DHT22;62291;47.554;8.504;2024-03-25T02:03:44;2.80;99.90
73939;DHT22;62291;47.554;8.504;2024-03-25T02:06:13;2.80;99.90
73939;DHT22;62291;47.554;8.504;2024-03-25T02:08:41;2.70;99.90
73939;DHT22;62291;47.554;8.504;2024-03-25T02:11:07;2.80;99.90
73939;DHT22;62291;47.554;8.504;2024-03-25T02:13:34;2.80;99.90
73939;DHT22;62291;47.554;8.504;2024-03-25T02:16:00;2.80;99.90
73939;DHT22;62291;47.554;8.504;2024-03-25T02:18:26;2.80;99.90
73939;DHT22;62291;47.554;8.504;2024-03-25T02:20:52;2.90;99.90
73939;DHT22;62291;47.554;8.504;2024-03-25T02:23:19;3.00;99.90
73939;DHT22;62291;47.554;8.504;2024-03-25T02:25:49;3.00;99.90
73939;DHT22;62291;47.554;8.504;2024-03-25T02:28:16;3.10;99.90
73939;DHT22;62291;47.554;8.504;2024-03-25T02:30:41;3.20;99.90
73939;DHT22;62291;47.554;8.504;2024-03-25T02:33:07;3.20;99.90
73939;DHT22;62291;47.554;8.504;2024-03-25T02:35:33;3.40;99.90
73939;DHT22;62291;47.554;8.504;2024-03-25T02:38:00;3.50;99.90
73939;DHT22;62291;47.554;8.504;2024-03-25T02:40:26;3.50;99.90
73939;DHT22;62291;47.554;8.504;2024-03-25T02:42:52;3.60;99.90
73939;DHT22;62291;47.554;8.504;2024-03-25T02:45:18;3.60;99.90
73939;DHT22;62291;47.554;8.504;2024-03-25T02:47:45;3.60;99.90
73939;DHT22;62291;47.554;8.504;2024-03-25T02:50:11;3.70;99.90
73939;DHT22;62291;47.554;8.504;2024-03-25T02:52:36;3.60;99.90
73939;DHT22;62291;47.554;8.504;2024-03-25T02:55:02;3.60;99.90
73939;DHT22;62291;47.554;8.504;2024-03-25T02:57:28;3.60;99.90
73939;DHT22;62291;47.554;8.504;2024-03-25T02:59:53;3.50;99.90
73939;DHT22;62291;47.554;8.504;2024-03-25T03:02:19;3.50;99.90
73939;DHT22;62291;47.554;8.504;2024-03-25T03:04:45;3.50;99.90
73939;DHT22;62291;47.554;8.504;2024-03-25T03:07:10;3.50;99.90
73939;DHT22;62291;47.554;8.504;2024-03-25T03:09:36;3.60;99.90
73939;DHT22;62291;47.554;8.504;2024-03-25T03:12:02;3.60;99.90
73939;DHT22;62291;47.554;8.504;2024-03-25T03:14:28;3.70;99.90
73939;DHT22;62291;47.554;8.504;2024-03-25T03:16:54;3.70;99.90
73939;DHT22;62291;47.554;8.504;2024-03-25T03:19:26;3.70;99.90
73939;DHT22;62291;47.554;8.504;2024-03-25T03:21:52;3.80;99.90
73939;DHT22;62291;47.554;8.504;2024-03-25T03:24:17;3.70;99.90
73939;DHT22;62291;47.554;8.504;2024-03-25T03:26:44;3.60;99.90
73939;DHT22;62291;47.554;8.504;2024-03-25T03:29:10;3.70;99.90
73939;DHT22;62291;47.554;8.504;2024-03-25T03:31:36;3.60;99.90
73939;DHT22;62291;47.554;8.504;2024-03-25T03:34:02;3.70;99.90
73939;DHT22;62291;47.554;8.504;2024-03-25T03:36:27;3.60;99.90
73939;DHT22;62291;47.554;8.504;2024-03-25T03:38:53;3.60;99.90
73939;DHT22;62291;47.554;8.504;2024-03-25T03:41:19;3.70;99.90
73939;DHT22;62291;47.554;8.504;2024-03-25T03:43:45;3.70;99.90
73939;DHT22;62291;47.554;8.504;2024-03-25T03:46:11;3.70;99.90
73939;DHT22;62291;47.554;8.504;2024-03-25T03:48:37;3.70;99.90
73939;DHT22;62291;47.554;8.504;2024-03-25T03:51:07;3.80;99.90
73939;DHT22;62291;47.554;8.504;2024-03-25T03:53:34;3.80;99.90
73939;DHT22;62291;47.554;8.504;2024-03-25T03:56:03;3.80;99.90
73939;DHT22;62291;47.554;8.504;2024-03-25T03:58:30;3.80;99.90
73939;DHT22;62291;47.554;8.504;2024-03-25T04:00:56;3.80;99.90
73939;DHT22;62291;47.554;8.504;2024-03-25T04:03:22;3.80;99.90
73939;DHT22;62291;47.554;8.504;2024-03-25T04:05:47;3.80;99.90
73939;DHT22;62291;47.554;8.504;2024-03-25T04:08:13;3.80;99.90
73939;DHT22;62291;47.554;8.504;2024-03-25T04:10:39;3.90;99.90
73939;DHT22;62291;47.554;8.504;2024-03-25T04:13:08;3.90;99.90
73939;DHT22;62291;47.554;8.504;2024-03-25T04:15:37;3.90;99.90
73939;DHT22;62291;47.554;8.504;2024-03-25T04:18:04;3.90;99.90
73939;DHT22;62291;47.554;8.504;2024-03-25T04:20:39;3.80;99.90
73939;DHT22;62291;47.554;8.504;2024-03-25T04:23:05;3.80;99.90
73939;DHT22;62291;47.554;8.504;2024-03-25T04:25:33;3.70;99.90
73939;DHT22;62291;47.554;8.504;2024-03-25T04:27:59;3.70;99.90
73939;DHT22;62291;47.554;8.504;2024-03-25T04:30:25;3.70;99.90
73939;DHT22;62291;47.554;8.504;2024-03-25T04:32:51;3.70;99.90
73939;DHT22;62291;47.554;8.504;2024-03-25T04:35:17;3.70;99.90
73939;DHT22;62291;47.554;8.504;2024-03-25T04:37:42;3.60;99.90
73939;DHT22;62291;47.554;8.504;2024-03-25T04:40:09;3.60;99.90
73939;DHT22;62291;47.554;8.504;2024-03-25T04:42:35;3.60;99.90
73939;DHT22;62291;47.554;8.504;2024-03-25T04:45:01;3.70;99.90
73939;DHT22;62291;47.554;8.504;2024-03-25T04:47:27;3.70;99.90
73939;DHT22;62291;47.554;8.504;2024-03-25T04:49:53;3.70;99.90
73939;DHT22;62291;47.554;8.504;2024-03-25T04:52:18;3.60;99.90
73939;DHT22;62291;47.554;8.504;2024-03-25T04:54:48;3.60;99.90
73939;DHT22;62291;47.554;8.504;2024-03-25T04:57:14;3.60;99.90
73939;DHT22;62291;47.554;8.504;2024-03-25T04:59:40;3.70;99.90
73939;DHT22;62291;47.554;8.504;2024-03-25T05:02:05;3.70;99.90
73939;DHT22;62291;47.554;8.504;2024-03-25T05:04:31;3.70;99.90
73939;DHT22;62291;47.554;8.504;2024-03-25T05:06:57;3.70;99.90
73939;DHT22;62291;47.554;8.504;2024-03-25T05:09:23;3.70;99.90
73939;DHT22;62291;47.554;8.504;2024-03-25T05:11:48;3.70;99.90
73939;DHT22;62291;47.554;8.504;2024-03-25T05:14:14;3.60;99.90
73939;DHT22;62291;47.554;8.504;2024-03-25T05:16:40;3.60;99.90
73939;DHT22;62291;47.554;8.504;2024-03-25T05:19:06;3.70;99.90
73939;DHT22;62291;47.554;8.504;2024-03-25T05:21:32;3.70;99.90
73939;DHT22;62291;47.554;8.504;2024-03-25T05:23:57;3.70;99.90
73939;DHT22;62291;47.554;8.504;2024-03-25T05:26:23;3.70;99.90
73939;DHT22;62291;47.554;8.504;2024-03-25T05:28:53;3.80;99.90
73939;DHT22;62291;47.554;8.504;2024-03-25T05:31:19;3.80;99.90
73939;DHT22;62291;47.554;8.504;2024-03-25T05:33:44;3.90;99.90
73939;DHT22;62291;47.554;8.504;2024-03-25T05:36:10;3.90;99.90
73939;DHT22;62291;47.554;8.504;2024-03-25T05:38:36;3.90;99.90
73939;DHT22;62291;47.554;8.504;2024-03-25T05:41:01;3.90;99.90
73939;DHT22;62291;47.554;8.504;2024-03-25T05:43:27;3.90;99.90
73939;DHT22;62291;47.554;8.504;2024-03-25T05:45:53;4.00;99.90
73939;DHT22;62291;47.554;8.504;2024-03-25T05:48:24;4.00;99.90
73939;DHT22;62291;47.554;8.504;2024-03-25T05:51:00;4.00;99.90
73939;DHT22;62291;47.554;8.504;2024-03-25T05:53:29;4.00;99.90
73939;DHT22;62291;47.554;8.504;2024-03-25T05:55:55;4.00;99.90
73939;DHT22;62291;47.554;8.504;2024-03-25T05:58:21;4.00;99.90
73939;DHT22;62291;47.554;8.504;2024-03-25T06:00:48;4.00;99.90
73939;DHT22;62291;47.554;8.504;2024-03-25T06:03:14;4.10;99.90
73939;DHT22;62291;47.554;8.504;2024-03-25T06:05:40;4.40;99.90
73939;DHT22;62291;47.554;8.504;2024-03-25T06:08:07;4.60;99.90
73939;DHT22;62291;47.554;8.504;2024-03-25T06:10:39;4.80;99.90
73939;DHT22;62291;47.554;8.504;2024-03-25T06:13:05;4.80;99.90
73939;DHT22;62291;47.554;8.504;2024-03-25T06:15:30;5.20;99.90
73939;DHT22;62291;47.554;8.504;2024-03-25T06:17:56;5.70;99.90
73939;DHT22;62291;47.554;8.504;2024-03-25T06:20:22;6.50;99.90
73939;DHT22;62291;47.554;8.504;2024-03-25T06:22:47;7.10;99.90
73939;DHT22;62291;47.554;8.504;2024-03-25T06:25:13;7.60;99.90
73939;DHT22;62291;47.554;8.504;2024-03-25T06:27:39;8.00;99.90
73939;DHT22;62291;47.554;8.504;2024-03-25T06:30:06;8.50;99.90
73939;DHT22;62291;47.554;8.504;2024-03-25T06:32:51;9.00;99.90
73939;DHT22;62291;47.554;8.504;2024-03-25T06:35:35;9.20;99.90
73939;DHT22;62291;47.554;8.504;2024-03-25T06:38:01;9.40;99.90
73939;DHT22;62291;47.554;8.504;2024-03-25T06:40:27;9.90;99.90
73939;DHT22;62291;47.554;8.504;2024-03-25T06:42:52;10.30;99.90
73939;DHT22;62291;47.554;8.504;2024-03-25T06:45:18;10.10;99.90
73939;DHT22;62291;47.554;8.504;2024-03-25T06:47:43;10.40;99.90
73939;DHT22;62291;47.554;8.504;2024-03-25T06:50:09;10.60;99.90
73939;DHT22;62291;47.554;8.504;2024-03-25T06:52:35;11.00;99.90
73939;DHT22;62291;47.554;8.504;2024-03-25T06:55:01;11.10;99.90
73939;DHT22;62291;47.554;8.504;2024-03-25T06:57:26;11.20;99.90
73939;DHT22;62291;47.554;8.504;2024-03-25T06:59:52;11.30;99.90
73939;DHT22;62291;47.554;8.504;2024-03-25T07:02:18;11.70;99.90
73939;DHT22;62291;47.554;8.504;2024-03-25T07:04:43;12.10;99.90
73939;DHT22;62291;47.554;8.504;2024-03-25T07:07:09;12.10;99.90
73939;DHT22;62291;47.554;8.504;2024-03-25T07:09:34;12.50;99.90
73939;DHT22;62291;47.554;8.504;2024-03-25T07:12:00;13.60;99.90
73939;DHT22;62291;47.554;8.504;2024-03-25T07:14:26;13.80;99.90
73939;DHT22;62291;47.554;8.504;2024-03-25T07:16:52;13.40;99.90
73939;DHT22;62291;47.554;8.504;2024-03-25T07:19:17;12.90;99.90
73939;DHT22;62291;47.554;8.504;2024-03-25T07:21:43;12.60;99.90
73939;DHT22;62291;47.554;8.504;2024-03-25T07:24:08;13.10;99.90
73939;DHT22;62291;47.554;8.504;2024-03-25T07:26:34;13.00;99.90
73939;DHT22;62291;47.554;8.504;2024-03-25T07:29:00;13.00;99.90
73939;DHT22;62291;47.554;8.504;2024-03-25T07:31:25;13.20;99.90
73939;DHT22;62291;47.554;8.504;2024-03-25T07:33:51;13.20;99.90
73939;DHT22;62291;47.554;8.504;2024-03-25T07:36:16;13.20;99.90
73939;DHT22;62291;47.554;8.504;2024-03-25T07:38:44;13.80;99.90
73939;DHT22;62291;47.554;8.504;2024-03-25T07:41:09;13.10;99.90
73939;DHT22;62291;47.554;8.504;2024-03-25T07:43:35;13.20;99.90
73939;DHT22;62291;47.554;8.504;2024-03-25T07:46:01;13.20;99.90
73939;DHT22;62291;47.554;8.504;2024-03-25T07:48:26;12.60;99.90
73939;DHT22;62291;47.554;8.504;2024-03-25T07:50:52;12.50;99.90
73939;DHT22;62291;47.554;8.504;2024-03-25T07:53:18;12.40;99.90
73939;DHT22;62291;47.554;8.504;2024-03-25T07:55:44;11.60;99.90
73939;DHT22;62291;47.554;8.504;2024-03-25T07:58:09;11.00;99.90
73939;DHT22;62291;47.554;8.504;2024-03-25T08:00:35;10.70;99.90
73939;DHT22;62291;47.554;8.504;2024-03-25T08:03:00;11.40;99.90
73939;DHT22;62291;47.554;8.504;2024-03-25T08:05:28;12.10;99.90
73939;DHT22;62291;47.554;8.504;2024-03-25T08:07:55;12.40;99.90
73939;DHT22;62291;47.554;8.504;2024-03-25T08:10:20;12.70;99.90
73939;DHT22;62291;47.554;8.504;2024-03-25T08:12:46;13.10;99.90
73939;DHT22;62291;47.554;8.504;2024-03-25T08:15:11;13.10;99.90
73939;DHT22;62291;47.554;8.504;2024-03-25T08:17:39;13.40;99.90
73939;DHT22;62291;47.554;8.504;2024-03-25T08:20:04;13.40;99.90
73939;DHT22;62291;47.554;8.504;2024-03-25T08:22:31;13.30;99.90
73939;DHT22;62291;47.554;8.504;2024-03-25T08:24:56;13.60;99.90
73939;DHT22;62291;47.554;8.504;2024-03-25T08:27:22;13.60;99.90
73939;DHT22;62291;47.554;8.504;2024-03-25T08:29:47;12.80;99.90
73939;DHT22;62291;47.554;8.504;2024-03-25T08:32:16;12.50;99.90
73939;DHT22;62291;47.554;8.504;2024-03-25T08:34:42;12.00;99.90
73939;DHT22;62291;47.554;8.504;2024-03-25T08:37:08;11.60;99.90
73939;DHT22;62291;47.554;8.504;2024-03-25T08:39:33;11.20;99.90
73939;DHT22;62291;47.554;8.504;2024-03-25T08:41:59;10.80;99.90
73939;DHT22;62291;47.554;8.504;2024-03-25T08:44:25;10.70;99.90
73939;DHT22;62291;47.554;8.504;2024-03-25T08:46:50;10.70;99.90
73939;DHT22;62291;47.554;8.504;2024-03-25T08:49:16;10.70;99.90
73939;DHT22;62291;47.554;8.504;2024-03-25T08:51:42;10.60;99.90
73939;DHT22;62291;47.554;8.504;2024-03-25T08:54:07;10.60;99.90
73939;DHT22;62291;47.554;8.504;2024-03-25T08:56:33;10.80;99.90
73939;DHT22;62291;47.554;8.504;2024-03-25T08:58:59;11.10;99.90
73939;DHT22;62291;47.554;8.504;2024-03-25T09:01:25;10.90;99.90
73939;DHT22;62291;47.554;8.504;2024-03-25T09:03:51;11.00;99.90
73939;DHT22;62291;47.554;8.504;2024-03-25T09:06:17;11.80;99.90
73939;DHT22;62291;47.554;8.504;2024-03-25T09:08:43;12.00;99.90
73939;DHT22;62291;47.554;8.504;2024-03-25T09:11:27;12.60;99.90
73939;DHT22;62291;47.554;8.504;2024-03-25T09:13:52;13.10;99.90
73939;DHT22;62291;47.554;8.504;2024-03-25T09:16:18;13.30;99.90
73939;DHT22;62291;47.554;8.504;2024-03-25T09:18:44;13.50;99.90
73939;DHT22;62291;47.554;8.504;2024-03-25T09:21:11;13.40;99.90
73939;DHT22;62291;47.554;8.504;2024-03-25T09:23:36;13.30;99.90
73939;DHT22;62291;47.554;8.504;2024-03-25T09:26:02;13.50;99.90
73939;DHT22;62291;47.554;8.504;2024-03-25T09:28:28;14.10;99.90
73939;DHT22;62291;47.554;8.504;2024-03-25T09:30:53;14.00;99.90
73939;DHT22;62291;47.554;8.504;2024-03-25T09:33:19;13.70;99.90
73939;DHT22;62291;47.554;8.504;2024-03-25T09:35:45;13.70;99.90
73939;DHT22;62291;47.554;8.504;2024-03-25T09:38:10;13.80;99.90
73939;DHT22;62291;47.554;8.504;2024-03-25T09:40:40;14.10;99.90
73939;DHT22;62291;47.554;8.504;2024-03-25T09:43:20;14.10;99.90
73939;DHT22;62291;47.554;8.504;2024-03-25T09:45:49;14.30;99.90
73939;DHT22;62291;47.554;8.504;2024-03-25T09:48:16;14.20;99.90
73939;DHT22;62291;47.554;8.504;2024-03-25T09:50:47;14.30;99.90
73939;DHT22;62291;47.554;8.504;2024-03-25T09:53:12;14.60;99.90
73939;DHT22;62291;47.554;8.504;2024-03-25T09:55:38;14.60;99.90
73939;DHT22;62291;47.554;8.504;2024-03-25T09:58:04;14.90;99.90
73939;DHT22;62291;47.554;8.504;2024-03-25T10:00:30;14.80;99.60
73939;DHT22;62291;47.554;8.504;2024-03-25T10:02:56;13.80;99.90
73939;DHT22;62291;47.554;8.504;2024-03-25T10:05:22;13.00;99.90
73939;DHT22;62291;47.554;8.504;2024-03-25T10:07:48;12.70;99.90
73939;DHT22;62291;47.554;8.504;2024-03-25T10:10:13;13.00;99.90
73939;DHT22;62291;47.554;8.504;2024-03-25T10:12:40;13.00;99.90
73939;DHT22;62291;47.554;8.504;2024-03-25T10:15:06;12.30;99.90
73939;DHT22;62291;47.554;8.504;2024-03-25T10:17:32;12.70;99.90
73939;DHT22;62291;47.554;8.504;2024-03-25T10:19:58;13.20;99.90
73939;DHT22;62291;47.554;8.504;2024-03-25T10:22:24;13.40;99.90
73939;DHT22;62291;47.554;8.504;2024-03-25T10:24:49;12.90;99.90
73939;DHT22;62291;47.554;8.504;2024-03-25T10:27:21;12.20;99.90
73939;DHT22;62291;47.554;8.504;2024-03-25T10:29:54;11.90;99.90
73939;DHT22;62291;47.554;8.504;2024-03-25T10:32:23;11.50;99.90
73939;DHT22;62291;47.554;8.504;2024-03-25T10:34:54;11.10;99.90
73939;DHT22;62291;47.554;8.504;2024-03-25T10:37:21;11.50;99.90
73939;DHT22;62291;47.554;8.504;2024-03-25T10:39:50;11.70;99.90
73939;DHT22;62291;47.554;8.504;2024-03-25T10:42:21;12.00;99.90
73939;DHT22;62291;47.554;8.504;2024-03-25T10:44:48;12.40;99.90
73939;DHT22;62291;47.554;8.504;2024-03-25T10:47:20;12.20;99.90
73939;DHT22;62291;47.554;8.504;2024-03-25T10:49:50;12.40;99.90
73939;DHT22;62291;47.554;8.504;2024-03-25T10:52:17;12.30;99.90
73939;DHT22;62291;47.554;8.504;2024-03-25T10:54:46;12.60;99.90
73939;DHT22;62291;47.554;8.504;2024-03-25T10:57:13;12.90;99.90
73939;DHT22;62291;47.554;8.504;2024-03-25T10:59:40;12.90;99.90
73939;DHT22;62291;47.554;8.504;2024-03-25T11:02:08;12.80;99.90
73939;DHT22;62291;47.554;8.504;2024-03-25T11:04:34;13.10;99.90
73939;DHT22;62291;47.554;8.504;2024-03-25T11:07:10;13.20;99.90
73939;DHT22;62291;47.554;8.504;2024-03-25T11:09:39;13.20;99.90
73939;DHT22;62291;47.554;8.504;2024-03-25T11:12:05;12.50;99.90
73939;DHT22;62291;47.554;8.504;2024-03-25T11:14:31;12.30;99.90
73939;DHT22;62291;47.554;8.504;2024-03-25T11:16:58;12.50;99.90
73939;DHT22;62291;47.554;8.504;2024-03-25T11:19:30;12.50;99.90
73939;DHT22;62291;47.554;8.504;2024-03-25T11:22:10;12.30;99.90
73939;DHT22;62291;47.554;8.504;2024-03-25T11:24:36;12.20;99.90
73939;DHT22;62291;47.554;8.504;2024-03-25T11:27:06;12.40;99.90
73939;DHT22;62291;47.554;8.504;2024-03-25T11:29:32;12.20;99.90
73939;DHT22;62291;47.554;8.504;2024-03-25T11:32:03;12.00;99.90
73939;DHT22;62291;47.554;8.504;2024-03-25T11:34:29;11.80;99.90
73939;DHT22;62291;47.554;8.504;2024-03-25T11:36:55;11.90;99.90
73939;DHT22;62291;47.554;8.504;2024-03-25T11:39:24;12.20;99.90
73939;DHT22;62291;47.554;8.504;2024-03-25T11:41:52;12.50;99.90
73939;DHT22;62291;47.554;8.504;2024-03-25T11:44:18;12.80;99.90
73939;DHT22;62291;47.554;8.504;2024-03-25T11:46:43;12.50;99.90
73939;DHT22;62291;47.554;8.504;2024-03-25T11:49:13;12.50;99.90
73939;DHT22;62291;47.554;8.504;2024-03-25T11:51:40;12.40;99.90
73939;DHT22;62291;47.554;8.504;2024-03-25T11:54:07;12.00;99.10
73939;DHT22;62291;47.554;8.504;2024-03-25T11:56:36;12.10;99.90
73939;DHT22;62291;47.554;8.504;2024-03-25T11:59:03;12.20;99.90
73939;DHT22;62291;47.554;8.504;2024-03-25T12:01:30;12.40;99.90
73939;DHT22;62291;47.554;8.504;2024-03-25T12:03:55;12.80;99.90
73939;DHT22;62291;47.554;8.504;2024-03-25T12:06:21;13.00;99.90
73939;DHT22;62291;47.554;8.504;2024-03-25T12:08:47;13.00;99.90
73939;DHT22;62291;47.554;8.504;2024-03-25T12:11:31;12.70;99.90
73939;DHT22;62291;47.554;8.504;2024-03-25T12:13:58;12.60;99.90
73939;DHT22;62291;47.554;8.504;2024-03-25T12:16:24;12.60;99.90
73939;DHT22;62291;47.554;8.504;2024-03-25T12:18:51;12.70;99.90
73939;DHT22;62291;47.554;8.504;2024-03-25T12:21:19;12.40;99.40
73939;DHT22;62291;47.554;8.504;2024-03-25T12:23:46;12.50;99.90
73939;DHT22;62291;47.554;8.504;2024-03-25T12:26:15;12.50;99.80
73939;DHT22;62291;47.554;8.504;2024-03-25T12:28:41;12.40;99.60
73939;DHT22;62291;47.554;8.504;2024-03-25T12:31:10;12.50;99.90
73939;DHT22;62291;47.554;8.504;2024-03-25T12:33:42;12.50;99.90
73939;DHT22;62291;47.554;8.504;2024-03-25T12:36:08;12.50;99.90
73939;DHT22;62291;47.554;8.504;2024-03-25T12:38:34;12.20;99.90
73939;DHT22;62291;47.554;8.504;2024-03-25T12:41:10;12.30;99.90
73939;DHT22;62291;47.554;8.504;2024-03-25T12:43:42;12.30;99.90
73939;DHT22;62291;47.554;8.504;2024-03-25T12:46:08;12.30;99.60
73939;DHT22;62291;47.554;8.504;2024-03-25T12:48:37;12.30;99.70
73939;DHT22;62291;47.554;8.504;2024-03-25T12:51:03;12.50;98.00
73939;DHT22;62291;47.554;8.504;2024-03-25T12:53:28;12.70;99.00
73939;DHT22;62291;47.554;8.504;2024-03-25T12:55:54;12.90;99.90
73939;DHT22;62291;47.554;8.504;2024-03-25T12:58:20;12.50;98.40
73939;DHT22;62291;47.554;8.504;2024-03-25T13:00:45;12.30;99.10
73939;DHT22;62291;47.554;8.504;2024-03-25T13:03:12;12.20;97.10
73939;DHT22;62291;47.554;8.504;2024-03-25T13:05:37;12.30;99.80
73939;DHT22;62291;47.554;8.504;2024-03-25T13:08:03;12.50;97.80
73939;DHT22;62291;47.554;8.504;2024-03-25T13:10:30;12.70;98.40
73939;DHT22;62291;47.554;8.504;2024-03-25T13:12:56;13.00;97.50
73939;DHT22;62291;47.554;8.504;2024-03-25T13:15:23;13.10;99.90
73939;DHT22;62291;47.554;8.504;2024-03-25T13:17:48;13.20;98.80
73939;DHT22;62291;47.554;8.504;2024-03-25T13:20:14;12.90;96.60
73939;DHT22;62291;47.554;8.504;2024-03-25T13:22:40;12.60;98.10
73939;DHT22;62291;47.554;8.504;2024-03-25T13:25:06;12.60;97.90
73939;DHT22;62291;47.554;8.504;2024-03-25T13:27:32;12.90;97.60
73939;DHT22;62291;47.554;8.504;2024-03-25T13:29:58;12.90;96.30
73939;DHT22;62291;47.554;8.504;2024-03-25T13:32:24;13.10;95.20
73939;DHT22;62291;47.554;8.504;2024-03-25T13:34:50;12.70;94.90
73939;DHT22;62291;47.554;8.504;2024-03-25T13:37:16;12.30;97.60
73939;DHT22;62291;47.554;8.504;2024-03-25T13:39:41;12.50;96.50
73939;DHT22;62291;47.554;8.504;2024-03-25T13:42:07;12.70;97.40
73939;DHT22;62291;47.554;8.504;2024-03-25T13:44:33;12.80;96.00
73939;DHT22;62291;47.554;8.504;2024-03-25T13:46:58;12.90;95.80
73939;DHT22;62291;47.554;8.504;2024-03-25T13:49:24;12.70;94.70
73939;DHT22;62291;47.554;8.504;2024-03-25T13:51:56;12.50;94.50
73939;DHT22;62291;47.554;8.504;2024-03-25T13:54:27;12.30;93.90
73939;DHT22;62291;47.554;8.504;2024-03-25T13:56:53;12.00;93.90
73939;DHT22;62291;47.554;8.504;2024-03-25T13:59:18;12.00;95.60
73939;DHT22;62291;47.554;8.504;2024-03-25T14:01:44;12.10;95.50
73939;DHT22;62291;47.554;8.504;2024-03-25T14:04:10;12.00;96.00
73939;DHT22;62291;47.554;8.504;2024-03-25T14:06:36;12.20;98.20
73939;DHT22;62291;47.554;8.504;2024-03-25T14:09:03;12.40;95.70
73939;DHT22;62291;47.554;8.504;2024-03-25T14:11:35;12.60;97.00
73939;DHT22;62291;47.554;8.504;2024-03-25T14:14:02;12.40;94.60
73939;DHT22;62291;47.554;8.504;2024-03-25T14:16:30;12.30;94.30
73939;DHT22;62291;47.554;8.504;2024-03-25T14:18:56;12.30;97.60
73939;DHT22;62291;47.554;8.504;2024-03-25T14:21:21;12.30;94.00
73939;DHT22;62291;47.554;8.504;2024-03-25T14:23:47;12.40;95.30
73939;DHT22;62291;47.554;8.504;2024-03-25T14:26:13;12.50;96.60
73939;DHT22;62291;47.554;8.504;2024-03-25T14:28:42;12.70;98.70
73939;DHT22;62291;47.554;8.504;2024-03-25T14:31:07;12.60;94.00
73939;DHT22;62291;47.554;8.504;2024-03-25T14:33:33;12.30;92.90
73939;DHT22;62291;47.554;8.504;2024-03-25T14:35:59;12.20;95.50
73939;DHT22;62291;47.554;8.504;2024-03-25T14:38:25;12.20;95.50
73939;DHT22;62291;47.554;8.504;2024-03-25T14:40:51;12.10;94.00
73939;DHT22;62291;47.554;8.504;2024-03-25T14:43:18;12.00;92.90
73939;DHT22;62291;47.554;8.504;2024-03-25T14:45:45;11.90;93.40
73939;DHT22;62291;47.554;8.504;2024-03-25T14:48:11;11.80;93.40
73939;DHT22;62291;47.554;8.504;2024-03-25T14:50:37;11.70;92.20
73939;DHT22;62291;47.554;8.504;2024-03-25T14:53:03;11.60;92.70
73939;DHT22;62291;47.554;8.504;2024-03-25T14:55:29;11.50;94.70
73939;DHT22;62291;47.554;8.504;2024-03-25T14:57:55;11.60;93.80
73939;DHT22;62291;47.554;8.504;2024-03-25T15:00:21;11.60;95.80
73939;DHT22;62291;47.554;8.504;2024-03-25T15:02:50;11.70;94.40
73939;DHT22;62291;47.554;8.504;2024-03-25T15:05:16;11.80;95.00
73939;DHT22;62291;47.554;8.504;2024-03-25T15:07:41;11.80;93.40
73939;DHT22;62291;47.554;8.504;2024-03-25T15:10:07;11.60;92.90
73939;DHT22;62291;47.554;8.504;2024-03-25T15:12:33;11.60;95.30
73939;DHT22;62291;47.554;8.504;2024-03-25T15:15:02;11.60;92.60
73939;DHT22;62291;47.554;8.504;2024-03-25T15:17:31;11.60;94.20
73939;DHT22;62291;47.554;8.504;2024-03-25T15:19:57;11.50;92.20
73939;DHT22;62291;47.554;8.504;2024-03-25T15:22:23;11.50;91.20
73939;DHT22;62291;47.554;8.504;2024-03-25T15:24:49;11.50;92.60
73939;DHT22;62291;47.554;8.504;2024-03-25T15:27:15;11.50;92.70
73939;DHT22;62291;47.554;8.504;2024-03-25T15:29:40;11.50;92.40
73939;DHT22;62291;47.554;8.504;2024-03-25T15:32:06;11.50;92.30
73939;DHT22;62291;47.554;8.504;2024-03-25T15:34:32;11.50;91.90